Time;durP1;ratioP1;P1;durP2;ratioP2;P2;SDS_P1;SDS_P2;PMS_P1;PMS_P2;Temp;Humidity;BMP_temperature;BMP_pressure;BME280_temperature;BME280_humidity;BME280_pressure;Samples;Min_cycle;Max_cycle;Signal;HPM_P1;HPM_P2
2023/12/16 00:01:42;;;;;;;;;;;;;;;1.81;100.00;98655.13;110487;1242;69092;-61
2023/12/16 00:04:13;;;;;;;;;;;;;;;1.80;100.00;98653.95;110507;1242;59764;-61
2023/12/16 00:06:42;;;;;;;;;;;;;;;1.77;100.00;98660.37;110560;1242;59717;-59
2023/12/16 00:09:12;;;;;;;;;;;;;;;1.75;100.00;98661.60;110564;1243;71271;-62
2023/12/16 00:11:42;;;;;;;;;;;;;;;1.72;100.00;98667.67;110577;1241;69303;-60
2023/12/16 00:14:13;;;;;;;;;;;;;;;1.71;100.00;98676.97;110439;1242;69310;-61
2023/12/16 00:16:44;;;;;;;;;;;;;;;1.71;100.00;98680.91;110486;1241;59708;-60
2023/12/16 00:19:14;;;;;;;;;;;;;;;1.72;100.00;98685.04;110512;1240;59682;-62
2023/12/16 00:21:44;;;;;;;;;;;;;;;1.71;100.00;98684.52;110442;1242;71443;-60
2023/12/16 00:24:13;;;;;;;;;;;;;;;1.70;100.00;98686.77;110571;1241;69837;-59
2023/12/16 00:26:44;;;;;;;;;;;;;;;1.70;100.00;98694.85;110563;1243;69368;-62
2023/12/16 00:29:14;;;;;;;;;;;;;;;1.72;100.00;98697.74;110595;1242;59740;-60
2023/12/16 00:31:46;;;;;;;;;;;;;;;1.63;100.00;98701.50;110449;1242;59641;-60
2023/12/16 00:34:16;;;;;;;;;;;;;;;1.59;100.00;98701.55;110590;1242;71813;-60
2023/12/16 00:36:48;;;;;;;;;;;;;;;1.55;100.00;98702.14;110542;1248;68763;-60
2023/12/16 00:39:18;;;;;;;;;;;;;;;1.51;100.00;98702.23;110630;1242;67543;-60
2023/12/16 00:41:48;;;;;;;;;;;;;;;1.52;100.00;98709.06;110262;1242;59808;-60
2023/12/16 00:44:17;;;;;;;;;;;;;;;1.51;100.00;98718.86;110372;1243;59677;-62
2023/12/16 00:46:47;;;;;;;;;;;;;;;1.51;100.00;98721.44;110332;1242;70420;-62
2023/12/16 00:49:16;;;;;;;;;;;;;;;1.52;100.00;98719.71;110270;1249;69254;-61
2023/12/16 00:51:46;;;;;;;;;;;;;;;1.51;100.00;98717.99;110243;1242;69858;-59
2023/12/16 00:54:16;;;;;;;;;;;;;;;1.50;100.00;98718.20;110272;1243;59705;-59
2023/12/16 00:56:47;;;;;;;;;;;;;;;1.49;100.00;98717.70;110332;1242;59755;-60
2023/12/16 00:59:18;;;;;;;;;;;;;;;1.48;100.00;98718.08;110327;1243;71523;-60
2023/12/16 01:01:48;;;;;;;;;;;;;;;1.43;100.00;98718.13;110255;1242;69321;-60
2023/12/16 01:04:18;;;;;;;;;;;;;;;1.42;100.00;98721.41;110349;1242;69227;-60
2023/12/16 01:06:47;;;;;;;;;;;;;;;1.46;100.00;98728.05;110252;1244;59746;-60
2023/12/16 01:09:17;;;;;;;;;;;;;;;1.48;100.00;98731.98;110383;1241;59712;-60
2023/12/16 01:11:47;;;;;;;;;;;;;;;1.52;100.00;98737.93;110338;1242;71930;-60
2023/12/16 01:14:19;;;;;;;;;;;;;;;1.55;100.00;98739.27;110282;1241;69306;-60
2023/12/16 01:16:49;;;;;;;;;;;;;;;1.55;100.00;98735.14;110221;1249;69379;-60
2023/12/16 01:19:20;;;;;;;;;;;;;;;1.52;100.00;98740.50;110300;1242;60091;-60
2023/12/16 01:21:51;;;;;;;;;;;;;;;1.49;100.00;98741.92;110261;1242;59673;-62
2023/12/16 01:24:21;;;;;;;;;;;;;;;1.50;100.00;98739.16;110311;1242;71108;-61
2023/12/16 01:26:53;;;;;;;;;;;;;;;1.44;100.00;98740.80;110229;1242;69137;-60
2023/12/16 01:29:23;;;;;;;;;;;;;;;1.45;100.00;98738.03;110298;1241;69258;-60
2023/12/16 01:31:53;;;;;;;;;;;;;;;1.39;100.00;98743.45;110329;1242;59679;-61
2023/12/16 01:34:26;;;;;;;;;;;;;;;1.31;100.00;98739.98;110410;1243;59685;-60
2023/12/16 01:36:57;;;;;;;;;;;;;;;1.18;100.00;98739.63;110240;1242;71240;-60
2023/12/16 01:39:28;;;;;;;;;;;;;;;1.25;100.00;98742.64;110295;1243;68549;-60
2023/12/16 01:41:59;;;;;;;;;;;;;;;1.28;100.00;98742.75;110489;1241;69304;-61
2023/12/16 01:44:29;;;;;;;;;;;;;;;1.30;100.00;98744.45;110406;1240;59657;-60
2023/12/16 01:47:02;;;;;;;;;;;;;;;1.28;100.00;98748.59;110474;1242;59675;-61
2023/12/16 01:49:32;;;;;;;;;;;;;;;1.24;100.00;98746.77;110527;1244;71392;-60
2023/12/16 01:52:05;;;;;;;;;;;;;;;1.24;100.00;98745.05;110418;1240;69390;-60
2023/12/16 01:54:36;;;;;;;;;;;;;;;1.25;100.00;98744.35;109856;1242;812443;-60
2023/12/16 01:57:06;;;;;;;;;;;;;;;1.24;100.00;98744.54;110380;1240;59757;-60
2023/12/16 01:59:36;;;;;;;;;;;;;;;1.21;100.00;98740.98;110512;1241;60119;-61
2023/12/16 02:02:09;;;;;;;;;;;;;;;1.18;100.00;98740.48;110368;1238;71241;-60
2023/12/16 02:04:38;;;;;;;;;;;;;;;1.16;100.00;98738.64;110440;1243;68831;-61
2023/12/16 02:07:14;;;;;;;;;;;;;;;1.17;100.00;98741.20;110377;1241;69337;-60
2023/12/16 02:09:45;;;;;;;;;;;;;;;1.13;100.00;98744.50;110510;1248;59753;-61
2023/12/16 02:12:19;;;;;;;;;;;;;;;1.01;100.00;98744.33;110355;1242;59731;-60
2023/12/16 02:14:49;;;;;;;;;;;;;;;1.03;100.00;98747.22;110416;1242;71430;-60
2023/12/16 02:17:21;;;;;;;;;;;;;;;0.99;100.00;98750.02;110370;1243;69395;-60
2023/12/16 02:19:52;;;;;;;;;;;;;;;0.96;100.00;98749.02;110488;1243;67882;-60
2023/12/16 02:22:22;;;;;;;;;;;;;;;0.99;100.00;98751.22;110290;1244;59862;-60
2023/12/16 02:24:54;;;;;;;;;;;;;;;1.00;100.00;98758.08;110514;1241;59743;-60
2023/12/16 02:27:26;;;;;;;;;;;;;;;0.93;100.00;98763.15;110435;1241;72053;-60
2023/12/16 02:29:57;;;;;;;;;;;;;;;0.88;100.00;98773.51;110472;1240;68585;-61
2023/12/16 02:32:28;;;;;;;;;;;;;;;0.78;100.00;98782.73;110401;1244;69358;-60
2023/12/16 02:34:58;;;;;;;;;;;;;;;0.83;100.00;98791.41;110540;1244;59678;-60
2023/12/16 02:37:33;;;;;;;;;;;;;;;0.79;100.00;98798.34;110511;1243;59690;-61
2023/12/16 02:40:03;;;;;;;;;;;;;;;0.80;100.00;98800.89;110484;1241;71348;-60
2023/12/16 02:42:33;;;;;;;;;;;;;;;0.72;100.00;98804.75;110480;1240;68480;-60
2023/12/16 02:45:05;;;;;;;;;;;;;;;0.63;100.00;98810.36;110452;1241;68594;-60
2023/12/16 02:47:36;;;;;;;;;;;;;;;0.59;100.00;98808.51;110569;1238;59722;-60
2023/12/16 02:50:08;;;;;;;;;;;;;;;0.58;100.00;98808.52;110314;1242;59661;-60
2023/12/16 02:52:38;;;;;;;;;;;;;;;0.63;100.00;98810.18;110532;1238;70283;-60
2023/12/16 02:55:09;;;;;;;;;;;;;;;0.60;100.00;98813.48;110365;1242;69032;-60
2023/12/16 02:57:42;;;;;;;;;;;;;;;0.57;100.00;98812.13;110594;1248;69624;-60
2023/12/16 03:00:14;;;;;;;;;;;;;;;0.62;100.00;98817.57;110554;1241;59737;-60
2023/12/16 03:02:45;;;;;;;;;;;;;;;0.63;100.00;98829.75;110534;1242;59692;-60
2023/12/16 03:05:19;;;;;;;;;;;;;;;0.64;100.00;98834.52;110591;1242;71407;-61
2023/12/16 03:07:51;;;;;;;;;;;;;;;0.64;100.00;98845.67;110566;1242;68652;-61
2023/12/16 03:10:21;;;;;;;;;;;;;;;0.63;100.00;98853.41;110522;1242;68596;-61
2023/12/16 03:12:53;;;;;;;;;;;;;;;0.62;100.00;98855.14;110625;1241;59692;-61
2023/12/16 03:15:28;;;;;;;;;;;;;;;0.62;100.00;98856.01;110591;1241;59672;-61
2023/12/16 03:18:00;;;;;;;;;;;;;;;0.62;100.00;98861.49;110540;1242;72013;-60
2023/12/16 03:20:31;;;;;;;;;;;;;;;0.61;100.00;98864.41;110563;1240;68583;-60
2023/12/16 03:23:01;;;;;;;;;;;;;;;0.62;100.00;98863.38;110552;1242;68718;-62
2023/12/16 03:25:32;;;;;;;;;;;;;;;0.62;100.00;98867.31;110503;1242;59694;-62
2023/12/16 03:28:04;;;;;;;;;;;;;;;0.66;100.00;98869.17;110611;1242;59747;-62
2023/12/16 03:30:39;;;;;;;;;;;;;;;0.69;100.00;98870.51;110426;1242;70603;-61
2023/12/16 03:33:13;;;;;;;;;;;;;;;0.72;100.00;98879.58;110430;1238;69307;-61
2023/12/16 03:35:48;;;;;;;;;;;;;;;0.72;100.00;98877.51;110487;1241;69269;-61
2023/12/16 03:38:18;;;;;;;;;;;;;;;0.73;100.00;98880.59;110623;1242;59661;-61
2023/12/16 03:40:48;;;;;;;;;;;;;;;0.72;100.00;98882.66;110530;1243;59760;-61
2023/12/16 03:43:23;;;;;;;;;;;;;;;0.78;100.00;98886.39;110423;1242;71432;-61
2023/12/16 03:45:54;;;;;;;;;;;;;;;0.80;100.00;98891.34;110445;1241;69238;-60
2023/12/16 03:48:28;;;;;;;;;;;;;;;0.82;100.00;98896.47;110435;1242;68470;-60
2023/12/16 03:50:58;;;;;;;;;;;;;;;0.84;100.00;98899.20;110489;1242;59744;-61
2023/12/16 03:53:28;;;;;;;;;;;;;;;0.84;100.00;98905.54;110423;1240;59670;-60
2023/12/16 03:55:59;;;;;;;;;;;;;;;0.86;100.00;98911.20;110443;1242;71404;-60
2023/12/16 03:58:30;;;;;;;;;;;;;;;0.88;100.00;98908.77;110445;1242;69098;-61
2023/12/16 04:01:03;;;;;;;;;;;;;;;0.86;100.00;98907.06;110482;1241;68361;-61
2023/12/16 04:03:35;;;;;;;;;;;;;;;0.87;100.00;98913.39;110378;1239;59660;-61
2023/12/16 04:06:10;;;;;;;;;;;;;;;0.86;100.00;98918.39;110438;1242;59725;-60
2023/12/16 04:08:41;;;;;;;;;;;;;;;0.87;100.00;98927.65;110513;1241;71395;-60
2023/12/16 04:11:11;;;;;;;;;;;;;;;0.89;100.00;98935.20;110403;1248;68537;-60
2023/12/16 04:13:40;;;;;;;;;;;;;;;0.87;100.00;98943.62;110454;1242;68492;-60
2023/12/16 04:16:10;;;;;;;;;;;;;;;0.88;100.00;98948.26;110386;1242;59732;-60
2023/12/16 04:18:41;;;;;;;;;;;;;;;0.87;100.00;98950.83;110520;1241;59692;-60
2023/12/16 04:21:12;;;;;;;;;;;;;;;0.85;100.00;98943.47;110420;1241;70720;-60
2023/12/16 04:23:42;;;;;;;;;;;;;;;0.74;100.00;98945.29;110416;1241;69045;-60
2023/12/16 04:26:14;;;;;;;;;;;;;;;0.70;100.00;98950.65;110338;1243;69507;-60
2023/12/16 04:28:44;;;;;;;;;;;;;;;0.64;100.00;98955.15;110408;1240;59663;-60
2023/12/16 04:31:17;;;;;;;;;;;;;;;0.60;100.00;98957.92;110387;1241;59667;-60
2023/12/16 04:33:46;;;;;;;;;;;;;;;0.58;100.00;98963.61;110507;1242;71955;-60
2023/12/16 04:36:19;;;;;;;;;;;;;;;0.55;100.00;98968.63;110372;1241;69096;-60
2023/12/16 04:38:49;;;;;;;;;;;;;;;0.57;100.00;98971.52;110444;1242;69319;-60
2023/12/16 04:41:20;;;;;;;;;;;;;;;0.57;100.00;98979.58;110395;1238;59743;-60
2023/12/16 04:43:50;;;;;;;;;;;;;;;0.60;100.00;98980.76;110511;1243;59737;-60
2023/12/16 04:46:21;;;;;;;;;;;;;;;0.64;100.00;98981.25;110396;1240;71420;-60
2023/12/16 04:48:54;;;;;;;;;;;;;;;0.68;100.00;98978.45;110512;1242;68263;-60
2023/12/16 04:51:24;;;;;;;;;;;;;;;0.70;100.00;98977.08;110385;1242;69183;-60
2023/12/16 04:53:56;;;;;;;;;;;;;;;0.72;100.00;98972.08;110498;1241;59738;-60
2023/12/16 04:56:26;;;;;;;;;;;;;;;0.74;100.00;98981.34;110385;1240;59713;-62
2023/12/16 04:58:57;;;;;;;;;;;;;;;0.73;100.00;98983.23;110536;1241;71402;-62
2023/12/16 05:01:27;;;;;;;;;;;;;;;0.72;100.00;98991.46;110507;1242;69233;-59
2023/12/16 05:03:56;;;;;;;;;;;;;;;0.71;100.00;98990.79;110477;1238;69136;-59
2023/12/16 05:06:25;;;;;;;;;;;;;;;0.69;100.00;98994.58;110465;1243;59734;-60
2023/12/16 05:08:56;;;;;;;;;;;;;;;0.70;100.00;98991.50;110611;1243;59748;-60
2023/12/16 05:11:27;;;;;;;;;;;;;;;0.70;100.00;98990.80;110566;1238;70692;-60
2023/12/16 05:13:57;;;;;;;;;;;;;;;0.65;100.00;98991.02;110454;1241;69306;-60
2023/12/16 05:16:27;;;;;;;;;;;;;;;0.64;100.00;98993.77;110503;1241;68318;-61
2023/12/16 05:19:03;;;;;;;;;;;;;;;0.56;100.00;98991.95;110589;1238;59735;-60
2023/12/16 05:21:32;;;;;;;;;;;;;;;0.55;100.00;98991.26;110505;1241;59663;-60
2023/12/16 05:24:02;;;;;;;;;;;;;;;0.51;100.00;98988.02;110466;1241;71470;-60
2023/12/16 05:26:32;;;;;;;;;;;;;;;0.43;100.00;98987.90;110584;1242;69388;-60
2023/12/16 05:29:01;;;;;;;;;;;;;;;0.34;100.00;98979.06;110574;1239;69204;-60
2023/12/16 05:31:30;;;;;;;;;;;;;;;0.24;100.00;98984.95;110651;1238;59734;-60
2023/12/16 05:34:00;;;;;;;;;;;;;;;0.11;100.00;98991.38;110687;1239;59678;-60
2023/12/16 05:36:31;;;;;;;;;;;;;;;-0.12;100.00;98993.56;110525;1239;70616;-61
2023/12/16 05:39:02;;;;;;;;;;;;;;;-0.17;100.00;98994.43;110571;1240;69248;-60
2023/12/16 05:41:32;;;;;;;;;;;;;;;-0.12;100.00;98996.64;110573;1245;68353;-61
2023/12/16 05:44:02;;;;;;;;;;;;;;;-0.07;100.00;98998.16;110615;1239;59685;-61
2023/12/16 05:46:31;;;;;;;;;;;;;;;-0.04;100.00;98997.63;110659;1239;59746;-60
2023/12/16 05:49:01;;;;;;;;;;;;;;;-0.02;100.00;98996.77;110677;1240;71241;-61
2023/12/16 05:51:37;;;;;;;;;;;;;;;-0.03;100.00;98994.37;110672;1238;70328;-60
2023/12/16 05:54:08;;;;;;;;;;;;;;;-0.07;100.00;98993.87;110705;1245;69407;-61
2023/12/16 05:56:38;;;;;;;;;;;;;;;-0.07;100.00;98996.09;110537;1238;59725;-61
2023/12/16 05:59:07;;;;;;;;;;;;;;;-0.09;100.00;98994.56;110673;1242;59739;-60
2023/12/16 06:01:37;;;;;;;;;;;;;;;-0.09;100.00;98993.20;110521;1240;71976;-61
2023/12/16 06:04:07;;;;;;;;;;;;;;;-0.10;100.00;98989.25;110501;1239;69663;-61
2023/12/16 06:06:36;;;;;;;;;;;;;;;-0.11;100.00;98990.45;110662;1238;68359;-61
2023/12/16 06:09:04;;;;;;;;;;;;;;;-0.10;100.00;98983.09;110506;1244;59738;-61
2023/12/16 06:11:34;;;;;;;;;;;;;;;-0.11;100.00;98980.70;110473;1239;59624;-61
2023/12/16 06:14:04;;;;;;;;;;;;;;;-0.08;100.00;98980.86;110568;1238;71962;-61
2023/12/16 06:16:33;;;;;;;;;;;;;;;-0.11;100.00;98983.96;110506;1239;68846;-61
2023/12/16 06:19:02;;;;;;;;;;;;;;;-0.10;100.00;98985.66;110594;1239;68744;-61
2023/12/16 06:21:32;;;;;;;;;;;;;;;-0.11;100.00;98989.10;110643;1241;59750;-61
2023/12/16 06:24:02;;;;;;;;;;;;;;;-0.14;100.00;98989.10;110567;1241;59727;-61
2023/12/16 06:26:31;;;;;;;;;;;;;;;-0.16;100.00;98983.98;110579;1238;71942;-62
2023/12/16 06:29:01;;;;;;;;;;;;;;;-0.13;100.00;98982.42;110574;1242;69173;-61
2023/12/16 06:31:30;;;;;;;;;;;;;;;-0.15;100.00;98987.58;110475;1241;68354;-63
2023/12/16 06:34:00;;;;;;;;;;;;;;;-0.13;100.00;98998.36;110562;1241;59675;-61
2023/12/16 06:36:29;;;;;;;;;;;;;;;-0.11;100.00;98998.70;110374;1242;59681;-62
2023/12/16 06:38:58;;;;;;;;;;;;;;;-0.08;100.00;98994.23;110544;1241;71992;-60
2023/12/16 06:41:30;;;;;;;;;;;;;;;-0.08;100.00;98997.99;110515;1240;69857;-60
2023/12/16 06:43:59;;;;;;;;;;;;;;;-0.07;100.00;99003.98;110636;1240;69287;-60
2023/12/16 06:46:28;;;;;;;;;;;;;;;-0.05;100.00;99013.40;110489;1240;59743;-60
2023/12/16 06:48:58;;;;;;;;;;;;;;;-0.05;100.00;99014.60;110693;1241;59653;-61
2023/12/16 06:51:27;;;;;;;;;;;;;;;-0.05;100.00;99007.59;110675;1241;71477;-60
2023/12/16 06:53:57;;;;;;;;;;;;;;;-0.01;100.00;99014.76;110726;1241;69830;-61
2023/12/16 06:56:27;;;;;;;;;;;;;;;0.06;100.00;99017.46;110557;1237;70266;-61
2023/12/16 06:58:56;;;;;;;;;;;;;;;0.02;100.00;99021.42;110474;1239;59683;-60
2023/12/16 07:01:26;;;;;;;;;;;;;;;-0.00;100.00;99022.97;110450;1243;59739;-60
2023/12/16 07:03:55;;;;;;;;;;;;;;;-0.02;100.00;99022.98;110617;1238;71410;-60
2023/12/16 07:06:25;;;;;;;;;;;;;;;-0.06;100.00;99025.05;110509;1238;69642;-60
2023/12/16 07:08:54;;;;;;;;;;;;;;;-0.13;100.00;99025.26;110567;1239;68638;-60
2023/12/16 07:11:23;;;;;;;;;;;;;;;-0.08;100.00;99023.01;110588;1239;59734;-59
2023/12/16 07:13:52;;;;;;;;;;;;;;;-0.18;100.00;99030.94;110714;1239;60072;-60
2023/12/16 07:16:23;;;;;;;;;;;;;;;-0.20;100.00;99040.55;110555;1239;71222;-60
2023/12/16 07:18:52;;;;;;;;;;;;;;;-0.20;100.00;99040.72;110538;1241;69212;-60
2023/12/16 07:21:21;;;;;;;;;;;;;;;-0.16;100.00;99047.04;110491;1239;69769;-60
2023/12/16 07:23:51;;;;;;;;;;;;;;;-0.13;100.00;99054.40;110540;1244;60085;-60
2023/12/16 07:26:20;;;;;;;;;;;;;;;-0.16;100.00;99061.09;110458;1239;59625;-60
2023/12/16 07:28:50;;;;;;;;;;;;;;;-0.07;100.00;99067.05;110713;1238;72264;-60
2023/12/16 07:31:18;;;;;;;;;;;;;;;-0.07;100.00;99066.38;110635;1239;68969;-61
2023/12/16 07:33:49;;;;;;;;;;;;;;;0.01;100.00;99070.45;110640;1237;69778;-60
2023/12/16 07:36:19;;;;;;;;;;;;;;;0.01;100.00;99069.25;110512;1239;59734;-60
2023/12/16 07:38:48;;;;;;;;;;;;;;;0.04;100.00;99074.55;110602;1239;59624;-60
2023/12/16 07:41:17;;;;;;;;;;;;;;;-0.08;100.00;99076.32;110493;1241;71341;-59
2023/12/16 07:43:46;;;;;;;;;;;;;;;-0.03;100.00;99073.39;110435;1241;69659;-61
2023/12/16 07:46:16;;;;;;;;;;;;;;;-0.05;100.00;99071.16;110426;1240;69601;-61
2023/12/16 07:48:45;;;;;;;;;;;;;;;-0.09;100.00;99069.63;110524;1241;59733;-60
2023/12/16 07:51:16;;;;;;;;;;;;;;;0.05;100.00;99070.95;110312;1242;59674;-60
2023/12/16 07:53:48;;;;;;;;;;;;;;;0.02;100.00;99078.85;110244;1239;70649;-61
2023/12/16 07:56:22;;;;;;;;;;;;;;;0.20;100.00;99087.34;110556;1240;69869;-61
2023/12/16 07:58:52;;;;;;;;;;;;;;;0.22;100.00;99088.02;110506;1238;69330;-60
2023/12/16 08:01:20;;;;;;;;;;;;;;;0.36;100.00;99090.52;110404;1241;59737;-60
2023/12/16 08:03:50;;;;;;;;;;;;;;;0.46;100.00;99092.70;110539;1243;59690;-60
2023/12/16 08:06:20;;;;;;;;;;;;;;;0.54;100.00;99093.18;110387;1240;71361;-61
2023/12/16 08:08:50;;;;;;;;;;;;;;;0.53;100.00;99100.39;110548;1239;69271;-60
2023/12/16 08:11:19;;;;;;;;;;;;;;;0.46;100.00;99111.40;110361;1238;69837;-60
2023/12/16 08:13:47;;;;;;;;;;;;;;;0.44;100.00;99117.41;110522;1238;60059;-60
2023/12/16 08:16:16;;;;;;;;;;;;;;;0.41;100.00;99121.72;110702;1239;59663;-60
2023/12/16 08:18:45;;;;;;;;;;;;;;;0.44;100.00;99126.52;110476;1238;70629;-60
2023/12/16 08:21:21;;;;;;;;;;;;;;;0.56;100.00;99134.35;110507;1239;69945;-60
2023/12/16 08:23:50;;;;;;;;;;;;;;;0.70;100.00;99142.52;110650;1238;68545;-60
2023/12/16 08:26:19;;;;;;;;;;;;;;;0.84;100.00;99144.65;110593;1239;59690;-60
2023/12/16 08:28:50;;;;;;;;;;;;;;;0.91;100.00;99140.31;110628;1237;59736;-60
2023/12/16 08:31:19;;;;;;;;;;;;;;;0.94;100.00;99142.01;110482;1245;70630;-60
2023/12/16 08:33:49;;;;;;;;;;;;;;;0.92;100.00;99144.08;110608;1239;70264;-60
2023/12/16 08:36:18;;;;;;;;;;;;;;;0.98;100.00;99140.96;110437;1238;69714;-60
2023/12/16 08:38:48;;;;;;;;;;;;;;;1.06;100.00;99139.02;110529;1239;59782;-60
2023/12/16 08:41:17;;;;;;;;;;;;;;;0.94;100.00;99145.45;110569;1244;59596;-60
2023/12/16 08:43:46;;;;;;;;;;;;;;;1.07;100.00;99147.92;110624;1241;71017;-60
2023/12/16 08:46:15;;;;;;;;;;;;;;;1.17;100.00;99140.13;110453;1239;68941;-60
2023/12/16 08:48:45;;;;;;;;;;;;;;;1.25;100.00;99139.04;110388;1241;69274;-60
2023/12/16 08:51:19;;;;;;;;;;;;;;;1.28;100.00;99143.14;110454;1241;59692;-61
2023/12/16 08:53:48;;;;;;;;;;;;;;;1.35;100.00;99146.86;110640;1239;59747;-60
2023/12/16 08:56:18;;;;;;;;;;;;;;;1.40;100.00;99146.66;110468;1241;71273;-61
2023/12/16 08:58:47;;;;;;;;;;;;;;;1.40;100.00;99148.71;110565;1241;69294;-60
2023/12/16 09:01:16;;;;;;;;;;;;;;;1.47;100.00;99144.70;110463;1238;69358;-61
2023/12/16 09:03:45;;;;;;;;;;;;;;;1.51;100.00;99142.77;110558;1238;60126;-62
2023/12/16 09:06:15;;;;;;;;;;;;;;;1.58;100.00;99143.05;110556;1238;59686;-60
2023/12/16 09:08:44;;;;;;;;;;;;;;;1.63;100.00;99142.33;110597;1241;70470;-60
2023/12/16 09:11:15;;;;;;;;;;;;;;;1.65;100.00;99144.88;110569;1241;69119;-60
2023/12/16 09:13:44;;;;;;;;;;;;;;;1.70;100.00;99149.46;110484;1238;69856;-60
2023/12/16 09:16:12;;;;;;;;;;;;;;;1.68;100.00;99144.33;110692;1239;59702;-61
2023/12/16 09:18:43;;;;;;;;;;;;;;;1.73;100.00;99141.36;110555;1240;59684;-60
2023/12/16 09:21:14;;;;;;;;;;;;;;;1.74;100.00;99141.18;110412;1242;72041;-60
2023/12/16 09:23:43;;;;;;;;;;;;;;;1.76;100.00;99140.46;110651;1239;70278;-60
2023/12/16 09:26:12;;;;;;;;;;;;;;;1.74;100.00;99144.45;110573;1239;69337;-61
2023/12/16 09:28:42;;;;;;;;;;;;;;;1.80;100.00;99152.98;110573;1239;59734;-60
2023/12/16 09:31:10;;;;;;;;;;;;;;;1.89;100.00;99159.59;110481;1237;59692;-60
2023/12/16 09:33:40;;;;;;;;;;;;;;;2.00;100.00;99162.23;110523;1239;72128;-61
2023/12/16 09:36:13;;;;;;;;;;;;;;;2.10;100.00;99161.95;110476;1240;69848;-60
2023/12/16 09:38:43;;;;;;;;;;;;;;;2.20;100.00;99162.70;110488;1240;69865;-60
2023/12/16 09:41:23;;;;;;;;;;;;;;;2.26;100.00;99157.30;110436;1241;59755;-59
2023/12/16 09:43:53;;;;;;;;;;;;;;;2.30;100.00;99160.36;110570;1239;59695;-61
2023/12/16 09:46:23;;;;;;;;;;;;;;;2.49;100.00;99163.91;110485;1239;71277;-61
2023/12/16 09:48:53;;;;;;;;;;;;;;;2.66;100.00;99164.73;110645;1245;69365;-61
2023/12/16 09:51:23;;;;;;;;;;;;;;;2.83;100.00;99166.57;110467;1246;69860;-60
2023/12/16 09:53:52;;;;;;;;;;;;;;;3.05;100.00;99168.33;110521;1240;59675;-61
2023/12/16 09:56:22;;;;;;;;;;;;;;;3.35;100.00;99163.57;110622;1238;59753;-61
2023/12/16 09:58:52;;;;;;;;;;;;;;;3.79;99.35;99165.92;110567;1238;70399;-61
2023/12/16 10:01:22;;;;;;;;;;;;;;;4.27;93.40;99161.08;110463;1237;69841;-61
2023/12/16 10:03:52;;;;;;;;;;;;;;;5.17;90.89;99155.85;110731;1238;69236;-61
2023/12/16 10:06:21;;;;;;;;;;;;;;;6.27;81.50;99157.74;110534;1239;59769;-61
2023/12/16 10:08:50;;;;;;;;;;;;;;;7.43;72.70;99149.59;110457;1239;60047;-61
2023/12/16 10:11:19;;;;;;;;;;;;;;;8.27;70.88;99149.15;110543;1238;71378;-60
2023/12/16 10:13:56;;;;;;;;;;;;;;;9.32;81.72;99143.10;110548;1238;69843;-60
2023/12/16 10:16:25;;;;;;;;;;;;;;;10.03;65.80;99140.35;110511;1239;69783;-60
2023/12/16 10:18:55;;;;;;;;;;;;;;;10.14;59.41;99141.41;110577;1239;59711;-61
2023/12/16 10:21:25;;;;;;;;;;;;;;;11.26;62.79;99141.02;110478;1239;59665;-60
2023/12/16 10:24:01;;;;;;;;;;;;;;;11.58;55.13;99141.56;110476;1240;71991;-61
2023/12/16 10:26:30;;;;;;;;;;;;;;;12.19;54.86;99142.30;110540;1239;69220;-60
2023/12/16 10:29:04;;;;;;;;;;;;;;;12.68;57.13;99136.25;110628;1240;69469;-59
2023/12/16 10:31:34;;;;;;;;;;;;;;;12.36;54.20;99139.66;110485;1239;60106;-62
2023/12/16 10:34:03;;;;;;;;;;;;;;;12.03;51.49;99145.09;110504;1239;59637;-60
2023/12/16 10:36:32;;;;;;;;;;;;;;;12.06;52.37;99145.92;110473;1239;70664;-60
2023/12/16 10:39:02;;;;;;;;;;;;;;;13.19;53.31;99134.70;110485;1238;69214;-62
2023/12/16 10:41:31;;;;;;;;;;;;;;;13.40;49.24;99138.41;110458;1239;69696;-60
2023/12/16 10:44:00;;;;;;;;;;;;;;;13.76;51.36;99139.16;110422;1239;59683;-60
2023/12/16 10:46:34;;;;;;;;;;;;;;;14.06;49.61;99140.51;110468;1239;59684;-60
2023/12/16 10:49:07;;;;;;;;;;;;;;;14.49;49.08;99129.88;110469;1238;71967;-59
2023/12/16 10:51:39;;;;;;;;;;;;;;;14.66;46.05;99125.14;110462;1239;69790;-62
2023/12/16 10:54:32;;;;;;;;;;;;;;;14.36;46.68;99127.13;110645;1239;69407;-61
2023/12/16 10:57:09;;;;;;;;;;;;;;;13.33;46.26;99126.84;110452;1239;60071;-60
2023/12/16 10:59:42;;;;;;;;;;;;;;;13.32;47.50;99131.86;110703;1239;59624;-60
2023/12/16 11:02:21;;;;;;;;;;;;;;;13.83;47.06;99131.86;110695;1239;71975;-61
2023/12/16 11:05:00;;;;;;;;;;;;;;;14.31;45.48;99131.11;110562;1239;69835;-60
2023/12/16 11:07:32;;;;;;;;;;;;;;;14.20;45.23;99131.77;110483;1239;69868;-59
2023/12/16 11:10:01;;;;;;;;;;;;;;;13.97;44.68;99133.31;110562;1239;59734;-62
2023/12/16 11:12:30;;;;;;;;;;;;;;;13.82;43.99;99126.98;110476;1238;59716;-59
2023/12/16 11:15:00;;;;;;;;;;;;;;;14.05;44.32;99120.79;110496;1238;70456;-61
2023/12/16 11:17:40;;;;;;;;;;;;;;;13.89;43.87;99123.84;110489;1239;69815;-60
2023/12/16 11:20:16;;;;;;;;;;;;;;;14.32;44.42;99127.92;110467;1238;68567;-60
2023/12/16 11:22:53;;;;;;;;;;;;;;;14.77;43.31;99128.70;110580;1240;59734;-59
2023/12/16 11:25:22;;;;;;;;;;;;;;;14.54;42.66;99128.63;110525;1239;59706;-61
2023/12/16 11:27:52;;;;;;;;;;;;;;;13.84;42.90;99122.70;110592;1239;70706;-61
2023/12/16 11:30:21;;;;;;;;;;;;;;;13.16;42.81;99122.77;110602;1239;69268;-60
2023/12/16 11:32:52;;;;;;;;;;;;;;;12.90;43.84;99122.11;110574;1239;70292;-61
2023/12/16 11:35:42;;;;;;;;;;;;;;;11.62;44.81;99129.27;110602;1239;59693;-62
2023/12/16 11:38:30;;;;;;;;;;;;;;;12.44;46.02;99131.54;110536;1238;59789;-62
2023/12/16 11:41:00;;;;;;;;;;;;;;;13.33;44.56;99127.03;110344;1240;71979;-61
2023/12/16 11:43:48;;;;;;;;;;;;;;;13.34;43.31;99123.30;110495;1238;69012;-60
2023/12/16 11:46:34;;;;;;;;;;;;;;;13.99;43.03;99117.98;110434;1238;69265;-60
2023/12/16 11:49:05;;;;;;;;;;;;;;;13.77;43.56;99117.89;110496;1241;59660;-60
2023/12/16 11:51:38;;;;;;;;;;;;;;;14.26;42.09;99115.28;110590;1240;59696;-60
2023/12/16 11:54:08;;;;;;;;;;;;;;;14.22;40.89;99112.38;110588;1238;71330;-62
2023/12/16 11:56:37;;;;;;;;;;;;;;;13.64;41.66;99105.51;110455;1238;69256;-60
2023/12/16 11:59:07;;;;;;;;;;;;;;;13.37;41.78;99103.34;110493;1238;68501;-61
2023/12/16 12:01:36;;;;;;;;;;;;;;;12.34;43.40;99111.44;110509;1242;59698;-60
2023/12/16 12:04:06;;;;;;;;;;;;;;;12.23;44.56;99116.45;110502;1241;59689;-60
2023/12/16 12:06:36;;;;;;;;;;;;;;;12.51;44.52;99109.87;110503;1238;71969;-60
2023/12/16 12:09:06;;;;;;;;;;;;;;;12.44;43.95;99114.27;110605;1238;68977;-60
2023/12/16 12:11:35;;;;;;;;;;;;;;;11.83;44.77;99110.65;110429;1238;69293;-58
2023/12/16 12:14:04;;;;;;;;;;;;;;;11.35;45.66;99108.46;110415;1241;59673;-62
2023/12/16 12:16:33;;;;;;;;;;;;;;;11.19;45.70;99100.36;110443;1241;59668;-60
2023/12/16 12:19:02;;;;;;;;;;;;;;;11.55;45.31;99099.28;110496;1241;71498;-59
2023/12/16 12:21:34;;;;;;;;;;;;;;;11.54;45.21;99099.31;110419;1241;69251;-60
2023/12/16 12:24:04;;;;;;;;;;;;;;;11.47;45.64;99100.20;110417;1241;69096;-60
2023/12/16 12:26:32;;;;;;;;;;;;;;;11.31;45.72;99102.73;110399;1241;59660;-59
2023/12/16 12:29:04;;;;;;;;;;;;;;;11.47;44.87;99102.10;110387;1241;59686;-62
2023/12/16 12:31:43;;;;;;;;;;;;;;;10.75;46.23;99095.25;110413;1238;72020;-60
2023/12/16 12:34:17;;;;;;;;;;;;;;;10.70;46.16;99097.43;110387;1241;69207;-62
2023/12/16 12:36:46;;;;;;;;;;;;;;;11.21;45.90;99100.06;110357;1241;68563;-60
2023/12/16 12:39:17;;;;;;;;;;;;;;;11.27;45.47;99106.75;110548;1241;60004;-62
2023/12/16 12:42:02;;;;;;;;;;;;;;;11.30;45.43;99106.41;110589;1237;59662;-60
2023/12/16 12:44:34;;;;;;;;;;;;;;;10.92;46.14;99101.66;110641;1239;70761;-61
2023/12/16 12:47:04;;;;;;;;;;;;;;;11.57;45.42;99093.44;110701;1239;70165;-59
2023/12/16 12:49:34;;;;;;;;;;;;;;;11.96;45.22;99088.15;110690;1237;68539;-61
2023/12/16 12:52:03;;;;;;;;;;;;;;;12.38;43.98;99081.38;110430;1238;59734;-60
2023/12/16 12:54:43;;;;;;;;;;;;;;;12.27;44.14;99086.70;110699;1238;59598;-61